Time;durP1;ratioP1;P1;durP2;ratioP2;P2;SDS_P1;SDS_P2;PMS_P1;PMS_P2;Temp;Humidity;BMP_temperature;BMP_pressure;BME280_temperature;BME280_humidity;BME280_pressure;Samples;Min_cycle;Max_cycle;Signal;HPM_P1;HPM_P2
2021/12/06 00:00:30;;;;;;;128.45;115.78;;;4.80;95.90;;;;;;5070665;28;20080;-77
2021/12/06 00:03:01;;;;;;;128.65;116.05;;;4.80;95.90;;;;;;5054130;28;20161;-77
2021/12/06 00:05:29;;;;;;;128.70;116.10;;;4.80;96.00;;;;;;5055231;28;20092;-77
2021/12/06 00:07:56;;;;;;;130.85;117.95;;;4.80;96.00;;;;;;5053847;28;20128;-77
2021/12/06 00:10:25;;;;;;;130.05;117.05;;;4.80;96.00;;;;;;5053825;28;20099;-77
2021/12/06 00:12:52;;;;;;;129.52;116.63;;;4.80;95.90;;;;;;5054123;28;20558;-77
2021/12/06 00:15:19;;;;;;;130.65;117.57;;;4.80;96.00;;;;;;5053438;28;20049;-77
2021/12/06 00:17:46;;;;;;;131.73;118.53;;;4.80;95.90;;;;;;5069962;28;20080;-77
2021/12/06 00:20:15;;;;;;;131.90;118.20;;;4.70;95.90;;;;;;5053626;28;20077;-76
2021/12/06 00:22:44;;;;;;;132.82;119.47;;;4.70;95.90;;;;;;5053721;28;20629;-77
2021/12/06 00:25:13;;;;;;;132.02;118.80;;;4.70;96.00;;;;;;5069376;28;20132;-77
2021/12/06 00:27:42;;;;;;;132.38;119.13;;;4.70;96.00;;;;;;5053374;28;20049;-77
2021/12/06 00:30:15;;;;;;;133.23;119.75;;;4.70;96.00;;;;;;5053561;28;20060;-76
2021/12/06 00:32:42;;;;;;;134.50;120.97;;;4.70;96.00;;;;;;5037088;28;20045;-76
2021/12/06 00:35:17;;;;;;;133.50;119.80;;;4.70;95.90;;;;;;5036803;28;20049;-77
2021/12/06 00:37:55;;;;;;;133.27;119.78;;;4.60;95.90;;;;;;5053765;28;20058;-77
2021/12/06 00:40:23;;;;;;;133.55;120.07;;;4.60;96.00;;;;;;5036839;28;20052;-77
2021/12/06 00:42:53;;;;;;;133.88;120.20;;;4.60;96.20;;;;;;5053461;28;20049;-77
2021/12/06 00:45:21;;;;;;;134.50;120.65;;;4.60;96.10;;;;;;5053239;28;20432;-77
2021/12/06 00:47:48;;;;;;;133.93;120.35;;;4.60;96.10;;;;;;5053133;28;20112;-77
2021/12/06 00:50:17;;;;;;;134.20;120.43;;;4.70;96.20;;;;;;5036851;28;20132;-77
2021/12/06 00:52:44;;;;;;;133.52;119.93;;;4.70;96.20;;;;;;5036951;28;20060;-77
2021/12/06 00:55:13;;;;;;;135.35;121.47;;;4.70;96.20;;;;;;5036766;28;20132;-77
2021/12/06 00:57:41;;;;;;;135.27;121.40;;;4.70;96.10;;;;;;5053179;28;20506;-77
2021/12/06 01:00:16;;;;;;;134.23;120.63;;;4.70;96.20;;;;;;5054767;28;20057;-77
2021/12/06 01:02:43;;;;;;;136.13;122.13;;;4.70;96.20;;;;;;5053527;28;20049;-77
2021/12/06 01:05:11;;;;;;;133.70;120.10;;;4.70;96.10;;;;;;5036678;28;20053;-76
2021/12/06 01:07:38;;;;;;;135.07;121.30;;;4.70;96.10;;;;;;5036386;28;20052;-77
2021/12/06 01:10:08;;;;;;;133.52;119.82;;;4.80;96.20;;;;;;5036370;28;20804;-77
2021/12/06 01:12:36;;;;;;;134.20;120.53;;;4.80;96.20;;;;;;5035547;28;20053;-76
2021/12/06 01:15:05;;;;;;;134.80;121.00;;;4.80;96.10;;;;;;5069571;28;20139;-77
2021/12/06 01:17:33;;;;;;;135.40;121.53;;;4.80;96.10;;;;;;5036332;28;20510;-77
2021/12/06 01:20:01;;;;;;;135.85;121.70;;;4.70;96.00;;;;;;5036381;28;20052;-77
2021/12/06 01:22:33;;;;;;;133.68;119.93;;;4.70;96.10;;;;;;5036384;28;20049;-77
2021/12/06 01:25:04;;;;;;;135.27;121.20;;;4.70;96.10;;;;;;5036133;28;20491;-77
2021/12/06 01:27:52;;;;;;;135.25;121.20;;;4.70;96.10;;;;;;5036263;28;20053;-77
2021/12/06 01:30:46;;;;;;;136.32;122.22;;;4.70;96.20;;;;;;5035858;28;20053;-77
2021/12/06 01:33:36;;;;;;;134.73;120.72;;;4.70;96.40;;;;;;5036120;28;20054;-77
2021/12/06 01:41:39;;;;;;;136.63;122.50;;;4.70;96.30;;;;;;5036058;28;20092;-77
2021/12/06 01:44:13;;;;;;;135.60;121.68;;;4.70;96.20;;;;;;5052037;28;20053;-77
2021/12/06 01:46:51;;;;;;;136.15;122.05;;;4.70;96.20;;;;;;5052687;28;20045;-77
2021/12/06 01:49:21;;;;;;;136.82;122.78;;;4.80;96.30;;;;;;5052571;28;20060;-76
2021/12/06 01:51:51;;;;;;;137.50;123.32;;;4.80;96.20;;;;;;5036016;28;20056;-77
2021/12/06 01:54:20;;;;;;;137.18;123.03;;;4.80;96.30;;;;;;5052609;28;20562;-77
2021/12/06 01:56:49;;;;;;;136.55;122.43;;;4.80;96.30;;;;;;5035225;28;20573;-77
2021/12/06 01:59:17;;;;;;;134.50;120.43;;;4.80;96.30;;;;;;5035672;28;20037;-78
2021/12/06 02:01:44;;;;;;;135.75;121.82;;;4.80;96.20;;;;;;5034754;28;20073;-77
2021/12/06 02:04:13;;;;;;;136.02;122.13;;;4.80;96.20;;;;;;5035977;28;20054;-77
2021/12/06 02:06:42;;;;;;;135.25;121.40;;;4.80;96.20;;;;;;5035537;28;20057;-77
2021/12/06 02:09:13;;;;;;;135.50;121.60;;;4.70;96.10;;;;;;5035598;28;20112;-77
2021/12/06 02:11:40;;;;;;;135.13;121.32;;;4.70;96.20;;;;;;5052040;28;20513;-77
2021/12/06 02:14:23;;;;;;;139.85;125.40;;;4.70;96.20;;;;;;5034929;28;20057;-77
2021/12/06 02:17:04;;;;;;;135.30;121.50;;;4.70;96.30;;;;;;5032564;28;20085;-77
2021/12/06 02:19:34;;;;;;;136.48;122.38;;;4.70;96.30;;;;;;5049614;28;20544;-76
2021/12/06 02:22:05;;;;;;;136.25;122.03;;;4.70;96.30;;;;;;5035227;28;20050;-77
2021/12/06 02:24:34;;;;;;;134.63;120.93;;;4.70;96.30;;;;;;5050892;28;20441;-77
2021/12/06 02:27:02;;;;;;;135.15;121.38;;;4.70;96.30;;;;;;5054924;28;20108;-77
2021/12/06 02:29:29;;;;;;;135.77;121.60;;;4.70;96.30;;;;;;5038147;28;20115;-77
2021/12/06 02:31:57;;;;;;;132.52;118.72;;;4.70;96.40;;;;;;5054513;28;20057;-77
2021/12/06 02:34:24;;;;;;;132.02;118.30;;;4.70;96.30;;;;;;5053962;28;20054;-76
2021/12/06 02:36:52;;;;;;;133.30;119.72;;;4.70;96.30;;;;;;5054778;28;20143;-77
2021/12/06 02:39:23;;;;;;;133.73;119.93;;;4.70;96.30;;;;;;5038637;28;20423;-77
2021/12/06 02:41:52;;;;;;;133.02;119.18;;;4.60;96.30;;;;;;5038246;28;20049;-77
2021/12/06 02:44:21;;;;;;;133.23;119.22;;;4.60;96.30;;;;;;5038572;28;20401;-77
2021/12/06 02:46:48;;;;;;;134.02;120.22;;;4.60;96.30;;;;;;5037123;28;20577;-77
2021/12/06 02:49:15;;;;;;;134.48;120.50;;;4.60;96.30;;;;;;5038845;28;20050;-77
2021/12/06 02:51:43;;;;;;;133.20;119.22;;;4.60;96.40;;;;;;5038519;28;20052;-77
2021/12/06 02:54:11;;;;;;;130.77;117.15;;;4.60;96.50;;;;;;5038836;28;20140;-77
2021/12/06 02:56:52;;;;;;;131.52;117.97;;;4.60;96.40;;;;;;5038397;28;20061;-77
2021/12/06 02:59:22;;;;;;;130.27;116.70;;;4.60;96.40;;;;;;5038727;28;20081;-77
2021/12/06 03:01:53;;;;;;;129.73;116.15;;;4.50;96.40;;;;;;5038579;28;20057;-77
2021/12/06 03:04:21;;;;;;;131.13;117.60;;;4.50;96.40;;;;;;5038725;28;20045;-77
2021/12/06 03:06:53;;;;;;;132.75;118.93;;;4.40;96.40;;;;;;5054815;28;20054;-77
2021/12/06 03:09:22;;;;;;;133.25;119.38;;;4.30;96.40;;;;;;5038297;28;20046;-77
2021/12/06 03:11:54;;;;;;;136.00;121.63;;;4.30;96.60;;;;;;5038620;28;20053;-77
2021/12/06 03:14:24;;;;;;;135.43;121.05;;;4.30;96.50;;;;;;5056050;28;20515;-77
2021/12/06 03:16:56;;;;;;;133.98;119.85;;;4.20;96.60;;;;;;5021617;28;20057;-77
2021/12/06 03:19:23;;;;;;;135.50;121.30;;;4.20;96.60;;;;;;5018193;28;20134;-77
2021/12/06 03:21:51;;;;;;;133.85;119.65;;;4.20;96.80;;;;;;5034824;28;20109;-77
2021/12/06 03:24:19;;;;;;;137.20;122.68;;;4.20;96.70;;;;;;5018648;28;20128;-78
2021/12/06 03:26:51;;;;;;;136.88;122.18;;;4.20;96.70;;;;;;5018146;28;20133;-77
2021/12/06 03:29:19;;;;;;;135.55;121.13;;;4.20;96.70;;;;;;5017654;28;20554;-77
2021/12/06 03:31:47;;;;;;;137.32;122.72;;;4.20;96.80;;;;;;5018415;28;20116;-77
2021/12/06 03:34:17;;;;;;;137.20;122.50;;;4.20;96.80;;;;;;5018042;28;20050;-77
2021/12/06 03:36:45;;;;;;;138.20;123.15;;;4.20;96.80;;;;;;5017116;28;20050;-77
2021/12/06 03:39:20;;;;;;;138.48;123.57;;;4.20;96.90;;;;;;5018035;28;20050;-77
2021/12/06 03:41:49;;;;;;;139.30;124.00;;;4.20;96.80;;;;;;5018107;28;20149;-77
2021/12/06 03:44:18;;;;;;;136.65;121.95;;;4.20;96.90;;;;;;5018366;28;20062;-77
2021/12/06 03:46:46;;;;;;;138.30;123.40;;;4.20;97.00;;;;;;5017858;28;20061;-76
2021/12/06 03:49:39;;;;;;;138.65;123.78;;;4.20;97.00;;;;;;5019443;28;20042;-77
2021/12/06 03:52:07;;;;;;;136.57;121.75;;;4.30;97.00;;;;;;5017969;28;20056;-77
2021/12/06 03:54:35;;;;;;;138.40;123.28;;;4.30;97.00;;;;;;5017843;28;20060;-78
2021/12/06 03:57:04;;;;;;;138.65;123.88;;;4.30;97.00;;;;;;5017829;28;20073;-77
2021/12/06 03:59:33;;;;;;;138.73;123.88;;;4.30;97.00;;;;;;5017986;28;20057;-77
2021/12/06 04:02:01;;;;;;;137.93;123.13;;;4.30;97.00;;;;;;5017612;28;20112;-76
2021/12/06 04:04:29;;;;;;;138.60;123.50;;;4.30;97.00;;;;;;5017707;28;20046;-77
2021/12/06 04:06:57;;;;;;;136.73;121.95;;;4.20;97.00;;;;;;5017516;28;20160;-77
2021/12/06 04:09:26;;;;;;;138.77;123.45;;;4.20;97.00;;;;;;5017761;28;20050;-77
2021/12/06 04:11:56;;;;;;;137.27;122.43;;;4.20;97.00;;;;;;5017882;28;20140;-77
2021/12/06 04:14:23;;;;;;;138.68;123.78;;;4.20;97.10;;;;;;5034073;28;20058;-77
2021/12/06 04:16:52;;;;;;;137.35;122.53;;;4.20;97.10;;;;;;5017417;28;20082;-77
2021/12/06 04:19:19;;;;;;;135.70;121.03;;;4.20;97.20;;;;;;5017481;28;20113;-77
2021/12/06 04:21:48;;;;;;;134.75;120.25;;;4.20;97.20;;;;;;5017452;28;20052;-78
2021/12/06 04:24:16;;;;;;;135.70;121.22;;;4.20;97.10;;;;;;5017238;28;20077;-77
2021/12/06 04:26:44;;;;;;;135.95;121.43;;;4.10;97.00;;;;;;5017465;28;20149;-77
2021/12/06 04:29:14;;;;;;;137.38;122.63;;;4.10;97.10;;;;;;5016779;28;20595;-77
2021/12/06 04:31:47;;;;;;;135.35;120.95;;;4.00;97.20;;;;;;5017216;28;20046;-77
2021/12/06 04:34:18;;;;;;;137.20;122.43;;;4.10;97.30;;;;;;5017504;28;20062;-77
2021/12/06 04:36:47;;;;;;;137.18;122.28;;;4.10;97.30;;;;;;5033543;28;20050;-77
2021/12/06 04:39:17;;;;;;;135.88;120.75;;;4.10;97.30;;;;;;5017383;28;20085;-77
2021/12/06 04:41:45;;;;;;;135.77;121.10;;;4.00;97.30;;;;;;5017152;28;20051;-77
2021/12/06 04:44:14;;;;;;;137.80;122.80;;;4.00;97.30;;;;;;5017393;28;20132;-77
2021/12/06 04:46:41;;;;;;;137.85;122.75;;;4.00;97.30;;;;;;5016724;28;20050;-77
2021/12/06 04:49:09;;;;;;;136.18;121.28;;;4.00;97.50;;;;;;5016908;28;20046;-77
2021/12/06 04:51:40;;;;;;;135.43;120.68;;;4.10;97.80;;;;;;5033597;28;20053;-77
2021/12/06 04:54:08;;;;;;;136.48;121.70;;;4.10;97.50;;;;;;5033378;28;20058;-77
2021/12/06 04:56:39;;;;;;;137.73;122.53;;;4.20;97.60;;;;;;5016477;28;20910;-77
2021/12/06 04:59:13;;;;;;;138.00;122.93;;;4.20;97.50;;;;;;5016819;28;20469;-77
2021/12/06 05:01:43;;;;;;;134.32;119.93;;;4.20;97.50;;;;;;5016767;28;20531;-77
2021/12/06 05:04:13;;;;;;;136.63;121.90;;;4.30;97.60;;;;;;5016952;28;20128;-77
2021/12/06 05:06:45;;;;;;;134.98;120.55;;;4.40;97.60;;;;;;5016582;28;20419;-77
2021/12/06 05:09:16;;;;;;;135.75;121.20;;;4.40;97.60;;;;;;5016587;28;20558;-78
2021/12/06 05:11:45;;;;;;;135.30;121.03;;;4.40;97.60;;;;;;5016862;28;20096;-77
2021/12/06 05:14:13;;;;;;;134.07;119.80;;;4.50;97.60;;;;;;5016483;28;20053;-78
2021/12/06 05:16:41;;;;;;;132.77;118.70;;;4.50;97.50;;;;;;5016655;28;20050;-77
2021/12/06 05:19:09;;;;;;;133.70;119.72;;;4.50;97.50;;;;;;5016507;28;20141;-77
2021/12/06 05:21:38;;;;;;;133.93;119.70;;;4.50;97.40;;;;;;5016763;28;20117;-77
2021/12/06 05:24:07;;;;;;;133.25;118.95;;;4.50;97.40;;;;;;5016512;28;20046;-77
2021/12/06 05:26:37;;;;;;;134.65;120.25;;;4.50;97.50;;;;;;5032894;28;20057;-77
2021/12/06 05:29:06;;;;;;;136.18;121.53;;;4.50;97.60;;;;;;5016254;28;20041;-77
2021/12/06 05:31:39;;;;;;;136.93;122.13;;;4.60;97.60;;;;;;5016281;28;20065;-78
2021/12/06 05:34:13;;;;;;;136.68;121.90;;;4.70;97.60;;;;;;5016376;28;20584;-77
2021/12/06 05:36:40;;;;;;;138.27;123.20;;;4.70;97.70;;;;;;5032728;28;20077;-77
2021/12/06 05:39:10;;;;;;;137.25;122.43;;;4.80;97.70;;;;;;5032813;28;20058;-77
2021/12/06 05:41:38;;;;;;;137.52;122.32;;;4.90;97.70;;;;;;5032997;28;20065;-77
2021/12/06 05:44:06;;;;;;;136.75;122.05;;;4.90;97.60;;;;;;5034359;28;20133;-77
2021/12/06 05:46:33;;;;;;;136.77;122.28;;;4.90;97.30;;;;;;5032833;28;20130;-77
2021/12/06 05:49:00;;;;;;;138.07;122.97;;;4.80;97.20;;;;;;5032669;28;20197;-78
2021/12/06 05:51:28;;;;;;;139.40;124.15;;;4.70;97.10;;;;;;5032556;28;20178;-77
2021/12/06 05:53:55;;;;;;;139.15;123.75;;;4.70;97.20;;;;;;5032956;28;20058;-77
2021/12/06 05:56:23;;;;;;;136.50;121.63;;;4.70;97.40;;;;;;5032276;28;20594;-78
2021/12/06 05:58:50;;;;;;;138.35;123.20;;;4.70;97.30;;;;;;5031901;28;20125;-77
2021/12/06 06:01:18;;;;;;;139.45;124.18;;;4.70;97.20;;;;;;5032257;28;20266;-77
2021/12/06 06:03:44;;;;;;;139.27;124.03;;;4.70;97.40;;;;;;5033931;28;20081;-77
2021/12/06 06:06:12;;;;;;;139.73;124.60;;;4.70;97.40;;;;;;5032361;28;20053;-77
2021/12/06 06:08:39;;;;;;;139.13;123.95;;;4.70;97.60;;;;;;5032751;28;20145;-77
2021/12/06 06:11:06;;;;;;;139.38;124.28;;;4.70;97.40;;;;;;5032206;28;20060;-77
2021/12/06 06:13:34;;;;;;;137.88;122.93;;;4.80;97.60;;;;;;5032391;28;20060;-77
2021/12/06 06:16:02;;;;;;;139.77;124.82;;;4.80;97.60;;;;;;5015857;28;20492;-77
2021/12/06 06:18:29;;;;;;;139.18;123.80;;;4.80;97.40;;;;;;5032273;28;20046;-77
2021/12/06 06:20:57;;;;;;;138.23;123.50;;;4.80;97.50;;;;;;5031815;28;20607;-77
2021/12/06 06:23:24;;;;;;;136.82;122.05;;;4.90;97.60;;;;;;5032226;28;20414;-77
2021/12/06 06:25:51;;;;;;;137.48;122.50;;;5.00;97.70;;;;;;5031885;28;20136;-78
2021/12/06 06:28:19;;;;;;;141.43;124.47;;;5.00;97.60;;;;;;5031906;28;20134;-78
2021/12/06 06:30:50;;;;;;;140.15;124.70;;;5.10;97.60;;;;;;5031774;28;20077;-77
2021/12/06 06:33:17;;;;;;;140.07;124.82;;;5.10;97.30;;;;;;5032076;28;20050;-77
2021/12/06 06:35:45;;;;;;;141.15;123.65;;;5.10;97.40;;;;;;5015454;28;20074;-77
2021/12/06 06:38:12;;;;;;;143.07;126.15;;;5.10;97.50;;;;;;5032119;28;20048;-77
2021/12/06 06:40:39;;;;;;;140.75;125.35;;;5.20;97.70;;;;;;5015446;28;20053;-78
2021/12/06 06:43:06;;;;;;;141.82;126.20;;;5.30;97.60;;;;;;5033674;28;20053;-78
2021/12/06 06:45:33;;;;;;;142.57;126.97;;;5.40;97.60;;;;;;5031735;28;20046;-77
2021/12/06 06:48:02;;;;;;;141.07;125.45;;;5.40;97.30;;;;;;5031855;28;20089;-78
2021/12/06 06:50:29;;;;;;;144.75;125.90;;;5.30;97.10;;;;;;5031514;28;20054;-77
2021/12/06 06:52:56;;;;;;;140.02;124.63;;;5.30;97.10;;;;;;5015608;28;20073;-77
2021/12/06 06:55:24;;;;;;;143.60;127.65;;;5.30;97.10;;;;;;5031472;28;20049;-77
2021/12/06 06:57:52;;;;;;;143.65;125.78;;;5.20;96.90;;;;;;5032078;28;20049;-77
2021/12/06 07:00:21;;;;;;;139.10;123.78;;;5.20;96.90;;;;;;5031725;28;20056;-77
2021/12/06 07:02:49;;;;;;;139.32;123.00;;;5.10;96.90;;;;;;5031569;28;20572;-78
2021/12/06 07:05:17;;;;;;;139.27;123.97;;;5.10;96.80;;;;;;5015035;28;20079;-77
2021/12/06 07:07:45;;;;;;;139.15;123.88;;;5.00;96.90;;;;;;5014934;28;20076;-77
2021/12/06 07:10:13;;;;;;;138.90;122.78;;;4.90;96.90;;;;;;5015142;28;20996;-77
2021/12/06 07:12:45;;;;;;;139.93;124.50;;;4.80;96.80;;;;;;5035029;28;20129;-77
2021/12/06 07:15:15;;;;;;;140.23;124.97;;;4.80;97.00;;;;;;5034927;28;20077;-78
2021/12/06 07:17:43;;;;;;;141.18;125.45;;;4.80;97.00;;;;;;5034722;28;20204;-77
2021/12/06 07:20:13;;;;;;;138.93;122.70;;;4.80;97.20;;;;;;5034666;28;20060;-77
2021/12/06 07:22:42;;;;;;;138.45;123.32;;;4.90;97.30;;;;;;5021246;28;20132;-77
2021/12/06 07:25:12;;;;;;;138.13;122.70;;;4.90;97.10;;;;;;5054170;28;20137;-77
2021/12/06 07:27:39;;;;;;;138.73;123.53;;;4.80;97.00;;;;;;5038148;28;20073;-77
2021/12/06 07:30:08;;;;;;;136.20;121.22;;;4.80;97.10;;;;;;5053965;28;20061;-77
2021/12/06 07:32:35;;;;;;;135.73;121.03;;;4.90;97.20;;;;;;5037797;28;20166;-77
2021/12/06 07:35:03;;;;;;;138.82;123.75;;;4.90;97.10;;;;;;5053921;28;20137;-77
2021/12/06 07:37:30;;;;;;;136.88;121.90;;;4.80;96.90;;;;;;5053677;28;20096;-77
2021/12/06 07:39:59;;;;;;;136.88;121.75;;;4.80;96.90;;;;;;5037920;28;20071;-77
2021/12/06 07:42:26;;;;;;;140.55;125.35;;;4.70;96.90;;;;;;5056665;28;20045;-78
2021/12/06 07:44:53;;;;;;;134.18;119.50;;;4.70;96.90;;;;;;5050348;28;20057;-78
2021/12/06 07:47:21;;;;;;;137.00;122.22;;;4.60;96.80;;;;;;5033677;28;20507;-79
2021/12/06 07:49:49;;;;;;;135.27;120.40;;;4.60;96.80;;;;;;5038668;28;20082;-78
2021/12/06 07:52:16;;;;;;;135.70;120.38;;;4.50;96.80;;;;;;5001019;28;20511;-78
2021/12/06 07:54:44;;;;;;;136.45;121.45;;;4.50;96.80;;;;;;5052544;28;20056;-79
2021/12/06 07:57:13;;;;;;;135.02;120.60;;;4.50;96.90;;;;;;5052547;28;20056;-78
2021/12/06 07:59:41;;;;;;;138.63;123.43;;;4.50;97.20;;;;;;5051786;28;20046;-78
2021/12/06 08:02:09;;;;;;;140.75;125.55;;;4.50;97.10;;;;;;5052945;28;20064;-78
2021/12/06 08:04:38;;;;;;;134.70;119.80;;;4.60;97.10;;;;;;5049840;28;20141;-78
2021/12/06 08:07:05;;;;;;;136.30;121.50;;;4.60;97.10;;;;;;5052851;28;20112;-79
2021/12/06 08:09:32;;;;;;;135.02;120.43;;;4.60;97.00;;;;;;5053306;28;20140;-78
2021/12/06 08:11:59;;;;;;;135.35;120.05;;;4.60;97.10;;;;;;5037302;28;20085;-78
2021/12/06 08:14:28;;;;;;;135.35;120.22;;;4.70;97.30;;;;;;5036180;28;20146;-78
2021/12/06 08:16:55;;;;;;;132.43;118.10;;;4.70;97.00;;;;;;5053541;28;20140;-77
2021/12/06 08:19:23;;;;;;;133.43;119.00;;;4.60;96.80;;;;;;5052647;28;20049;-78
2021/12/06 08:21:50;;;;;;;134.40;119.88;;;4.50;96.60;;;;;;5033435;28;20522;-77
2021/12/06 08:24:23;;;;;;;134.70;120.05;;;4.50;96.70;;;;;;5017421;28;20048;-78
2021/12/06 08:26:51;;;;;;;137.90;122.82;;;4.50;96.80;;;;;;5051756;28;20050;-78
2021/12/06 08:29:18;;;;;;;134.90;120.47;;;4.40;96.70;;;;;;5033317;28;20053;-79
2021/12/06 08:31:46;;;;;;;132.85;118.78;;;4.40;96.70;;;;;;5052242;28;20065;-78
2021/12/06 08:34:14;;;;;;;134.05;119.53;;;4.40;96.90;;;;;;5052690;28;20054;-80
2021/12/06 08:36:42;;;;;;;133.25;118.90;;;4.40;97.00;;;;;;5054625;28;20523;-78
2021/12/06 08:39:09;;;;;;;130.10;116.30;;;4.40;97.00;;;;;;5036799;28;20168;-78
2021/12/06 08:41:37;;;;;;;131.73;117.72;;;4.40;97.10;;;;;;5053192;28;20108;-78
2021/12/06 08:44:04;;;;;;;131.25;117.15;;;4.40;96.90;;;;;;5036627;28;20133;-80
2021/12/06 08:46:34;;;;;;;132.40;118.18;;;4.40;96.80;;;;;;5052274;28;20045;-78
2021/12/06 08:49:05;;;;;;;133.70;119.55;;;4.40;96.90;;;;;;5053026;28;20068;-79
2021/12/06 08:51:34;;;;;;;137.52;122.47;;;4.40;97.00;;;;;;5052305;28;20065;-79
2021/12/06 08:54:03;;;;;;;136.32;121.70;;;4.40;96.90;;;;;;5052600;28;20053;-78
2021/12/06 08:56:31;;;;;;;135.52;120.88;;;4.40;96.90;;;;;;5036367;28;20124;-79
2021/12/06 08:58:58;;;;;;;140.85;124.38;;;4.40;96.90;;;;;;5035663;28;20068;-79
2021/12/06 09:01:27;;;;;;;144.82;127.18;;;4.40;96.90;;;;;;5015986;28;20148;-78
2021/12/06 09:03:54;;;;;;;152.07;131.13;;;4.40;96.90;;;;;;5040398;28;20053;-78
2021/12/06 09:06:23;;;;;;;151.25;130.82;;;4.30;96.70;;;;;;5036459;28;20125;-77
2021/12/06 09:08:51;;;;;;;164.07;137.18;;;4.30;96.70;;;;;;5054430;28;20057;-77
2021/12/06 09:11:18;;;;;;;158.88;133.13;;;4.20;96.80;;;;;;5053114;28;20057;-77
2021/12/06 09:13:45;;;;;;;162.75;134.65;;;4.20;96.80;;;;;;5034832;28;20518;-83
2021/12/06 09:16:14;;;;;;;161.30;136.80;;;4.20;96.80;;;;;;5034170;28;20534;-79
2021/12/06 09:18:45;;;;;;;156.23;132.50;;;4.10;96.80;;;;;;5054097;28;20053;-79
2021/12/06 09:21:15;;;;;;;149.05;127.72;;;4.10;96.80;;;;;;5030451;28;20111;-79
2021/12/06 09:23:43;;;;;;;142.40;125.68;;;4.10;96.70;;;;;;5052367;28;20148;-78
2021/12/06 09:26:11;;;;;;;136.15;121.38;;;4.00;96.60;;;;;;5034677;28;20142;-74
2021/12/06 09:28:40;;;;;;;135.88;121.13;;;4.00;96.80;;;;;;5051507;28;20463;-78
2021/12/06 09:31:08;;;;;;;139.93;122.88;;;3.90;96.60;;;;;;5049602;28;20057;-75
2021/12/06 09:33:37;;;;;;;135.63;120.65;;;3.90;96.60;;;;;;5048861;28;21027;-76
2021/12/06 09:36:06;;;;;;;131.15;116.60;;;3.80;96.60;;;;;;5051945;28;20056;-75
2021/12/06 09:38:38;;;;;;;131.15;117.00;;;3.80;96.70;;;;;;5052089;28;20448;-74
2021/12/06 09:41:11;;;;;;;131.93;117.50;;;3.80;96.80;;;;;;5035646;28;20045;-77
2021/12/06 09:43:39;;;;;;;130.65;116.43;;;3.70;96.80;;;;;;5051682;28;20131;-75
2021/12/06 09:46:07;;;;;;;133.38;118.80;;;3.70;96.80;;;;;;5051957;28;20512;-75
2021/12/06 09:48:35;;;;;;;127.47;113.82;;;3.70;96.80;;;;;;5052224;28;20079;-74
2021/12/06 09:51:06;;;;;;;129.18;115.05;;;3.60;96.80;;;;;;5051927;28;20140;-73
2021/12/06 09:53:36;;;;;;;131.50;117.13;;;3.60;96.90;;;;;;5046708;28;20123;-77
2021/12/06 09:56:14;;;;;;;132.82;116.38;;;3.60;96.90;;;;;;5051709;28;20112;-74
2021/12/06 09:58:41;;;;;;;129.82;115.53;;;3.60;97.00;;;;;;5051518;28;20200;-73
2021/12/06 10:01:11;;;;;;;131.95;116.55;;;3.60;97.00;;;;;;5053021;28;20058;-76
2021/12/06 10:03:39;;;;;;;131.38;115.95;;;3.70;97.00;;;;;;5055586;28;20046;-75
2021/12/06 10:06:07;;;;;;;134.48;119.18;;;3.70;97.10;;;;;;5052568;28;20041;-76
2021/12/06 10:08:38;;;;;;;133.93;119.40;;;3.70;97.00;;;;;;5053063;28;20111;-77
2021/12/06 10:11:07;;;;;;;131.50;116.45;;;3.70;96.80;;;;;;5052106;28;20113;-77
2021/12/06 10:13:36;;;;;;;128.70;114.60;;;3.70;96.90;;;;;;5054095;28;20495;-76
2021/12/06 10:16:04;;;;;;;134.82;117.97;;;3.70;96.80;;;;;;5053871;28;20192;-77
2021/12/06 10:18:32;;;;;;;132.60;117.82;;;3.60;96.90;;;;;;5053577;28;20063;-77
2021/12/06 10:21:00;;;;;;;130.02;114.70;;;3.60;96.90;;;;;;5056580;28;20105;-76
2021/12/06 10:23:27;;;;;;;131.05;114.03;;;3.70;96.90;;;;;;5054485;28;20053;-76
2021/12/06 10:25:55;;;;;;;128.68;114.55;;;3.60;96.90;;;;;;5052186;28;20115;-76
2021/12/06 10:28:28;;;;;;;129.80;115.78;;;3.60;96.90;;;;;;5053099;28;20052;-78
2021/12/06 10:30:59;;;;;;;133.57;118.80;;;3.60;96.90;;;;;;5036726;28;20045;-77
2021/12/06 10:33:29;;;;;;;126.53;112.70;;;3.60;97.00;;;;;;5055579;28;20064;-79
2021/12/06 10:36:00;;;;;;;124.28;111.10;;;3.60;97.00;;;;;;5053916;28;20124;-79
2021/12/06 10:38:32;;;;;;;129.43;115.40;;;3.50;97.00;;;;;;5053539;28;20114;-78
2021/12/06 10:41:01;;;;;;;124.60;111.40;;;3.60;97.00;;;;;;5050723;28;20060;-78
2021/12/06 10:43:28;;;;;;;125.90;111.60;;;3.60;97.10;;;;;;5053191;28;20054;-79
2021/12/06 10:45:58;;;;;;;123.88;110.50;;;3.60;97.10;;;;;;5052551;28;20057;-79
2021/12/06 10:48:29;;;;;;;126.40;112.70;;;3.60;97.00;;;;;;5057184;28;20057;-74
2021/12/06 10:50:59;;;;;;;124.60;111.07;;;3.60;97.10;;;;;;5039985;28;20046;-82
2021/12/06 10:53:34;;;;;;;126.18;112.57;;;3.60;97.00;;;;;;5054083;28;20064;-79
2021/12/06 10:56:02;;;;;;;126.68;112.88;;;3.60;97.00;;;;;;5056656;28;20052;-82
2021/12/06 10:58:31;;;;;;;126.45;113.05;;;3.50;97.00;;;;;;5056608;28;20057;-79
2021/12/06 11:01:05;;;;;;;126.70;113.22;;;3.50;97.10;;;;;;5039813;28;20049;-79
2021/12/06 11:03:35;;;;;;;127.63;113.63;;;3.50;97.10;;;;;;5056830;28;20073;-78
2021/12/06 11:06:04;;;;;;;124.43;111.13;;;3.60;97.10;;;;;;5040782;28;20113;-88
2021/12/06 11:08:34;;;;;;;127.47;113.82;;;3.60;97.20;;;;;;5041212;28;20059;-85
2021/12/06 11:11:05;;;;;;;130.43;116.22;;;3.60;97.10;;;;;;5041322;28;20053;-80
2021/12/06 11:13:35;;;;;;;139.75;123.53;;;3.60;97.20;;;;;;5056902;28;20504;-81
2021/12/06 11:16:08;;;;;;;139.10;120.40;;;3.60;97.20;;;;;;5057172;28;20093;-74
2021/12/06 11:18:41;;;;;;;131.60;116.03;;;3.60;97.30;;;;;;5053896;28;20054;-76
2021/12/06 11:21:26;;;;;;;132.70;116.05;;;3.60;97.30;;;;;;5053702;28;20042;-76
2021/12/06 11:24:03;;;;;;;129.75;115.25;;;3.60;97.20;;;;;;5052873;28;20499;-76
2021/12/06 11:26:32;;;;;;;131.68;114.97;;;3.70;97.20;;;;;;5055705;28;20212;-77
2021/12/06 11:29:07;;;;;;;132.32;117.75;;;3.70;97.20;;;;;;5038304;28;20045;-78
2021/12/06 11:31:36;;;;;;;127.55;113.60;;;3.70;97.40;;;;;;5055587;28;20061;-75
2021/12/06 11:34:05;;;;;;;128.65;114.13;;;3.70;97.20;;;;;;5055812;28;20148;-75
2021/12/06 11:36:33;;;;;;;128.75;114.57;;;3.70;97.20;;;;;;5053293;28;20045;-76
2021/12/06 11:39:04;;;;;;;130.52;116.15;;;3.70;97.30;;;;;;5056109;28;20500;-79
2021/12/06 11:41:32;;;;;;;130.60;116.22;;;3.70;97.30;;;;;;5034479;28;20630;-75
2021/12/06 11:43:59;;;;;;;127.93;114.00;;;3.70;97.40;;;;;;5053154;28;20049;-75
2021/12/06 11:46:44;;;;;;;126.28;112.70;;;3.70;97.40;;;;;;5051928;28;20522;-76
2021/12/06 11:49:19;;;;;;;125.30;111.65;;;3.70;97.40;;;;;;5055519;28;20053;-75
2021/12/06 11:51:47;;;;;;;128.45;114.75;;;3.80;97.40;;;;;;5052975;28;20125;-76
2021/12/06 11:54:14;;;;;;;124.32;110.70;;;3.80;97.40;;;;;;5052702;28;20199;-76
2021/12/06 11:56:45;;;;;;;126.85;113.25;;;3.80;97.40;;;;;;5050335;28;20046;-76
2021/12/06 11:59:13;;;;;;;125.97;112.38;;;3.80;97.40;;;;;;5066852;28;20054;-76
2021/12/06 12:01:41;;;;;;;125.55;111.75;;;3.80;97.40;;;;;;5052923;28;20054;-77
2021/12/06 12:04:13;;;;;;;127.72;113.68;;;3.80;97.50;;;;;;5053326;28;20510;-79
2021/12/06 12:06:41;;;;;;;130.32;115.97;;;3.80;97.50;;;;;;5049332;28;20100;-78
2021/12/06 12:09:12;;;;;;;127.45;113.72;;;3.80;97.60;;;;;;5052550;28;20053;-78
2021/12/06 12:11:57;;;;;;;126.47;112.88;;;3.80;97.50;;;;;;5052982;28;20593;-76
2021/12/06 12:14:27;;;;;;;127.57;113.68;;;3.80;97.50;;;;;;5052575;28;20499;-76
2021/12/06 12:16:54;;;;;;;127.50;113.38;;;3.80;97.60;;;;;;5053400;28;20132;-75
2021/12/06 12:19:23;;;;;;;127.32;113.53;;;3.80;97.60;;;;;;5053590;28;20103;-76
2021/12/06 12:21:50;;;;;;;129.95;115.28;;;3.80;97.60;;;;;;5053118;28;20144;-76
2021/12/06 12:24:17;;;;;;;132.13;117.45;;;3.90;97.70;;;;;;5054449;28;20049;-77
2021/12/06 12:26:55;;;;;;;135.50;118.50;;;3.90;97.60;;;;;;5056753;28;20141;-76
2021/12/06 12:29:26;;;;;;;131.13;116.65;;;3.90;97.50;;;;;;5056297;28;20057;-76
2021/12/06 12:31:55;;;;;;;129.43;115.03;;;3.90;97.60;;;;;;5055426;28;20057;-76
2021/12/06 12:34:26;;;;;;;133.05;118.05;;;3.90;97.50;;;;;;5037946;28;20046;-76